sensor_id;sensor_type;location;lat;lon;timestamp;temperature;humidity
56727;DHT22;42609;52.700;6.236;2023-03-31T11:52:28;14.50;99.90
56727;DHT22;42609;52.700;6.236;2023-03-31T11:57:34;14.30;99.90
56727;DHT22;42609;52.700;6.236;2023-03-31T12:00:16;14.30;99.90
56727;DHT22;42609;52.700;6.236;2023-03-31T12:05:25;14.70;99.90
56727;DHT22;42609;52.700;6.236;2023-03-31T12:08:09;14.60;99.90
56727;DHT22;42609;52.700;6.236;2023-03-31T12:10:38;14.60;99.90
56727;DHT22;42609;52.700;6.236;2023-03-31T12:16:00;14.70;99.90
56727;DHT22;42609;52.700;6.236;2023-03-31T12:18:33;14.50;99.90
56727;DHT22;42609;52.700;6.236;2023-03-31T12:21:02;14.30;99.90
56727;DHT22;42609;52.700;6.236;2023-03-31T12:23:33;14.30;99.90
56727;DHT22;42609;52.700;6.236;2023-03-31T12:28:37;14.00;99.90
56727;DHT22;42609;52.700;6.236;2023-03-31T12:31:06;14.00;99.90
56727;DHT22;42609;52.700;6.236;2023-03-31T12:33:39;13.90;99.90
56727;DHT22;42609;52.700;6.236;2023-03-31T12:36:19;14.00;99.90
56727;DHT22;42609;52.700;6.236;2023-03-31T12:39:11;14.20;99.90
56727;DHT22;42609;52.700;6.236;2023-03-31T12:45:01;14.20;99.90
56727;DHT22;42609;52.700;6.236;2023-03-31T12:47:37;14.10;99.90
56727;DHT22;42609;52.700;6.236;2023-03-31T12:55:42;14.30;99.90
56727;DHT22;42609;52.700;6.236;2023-03-31T13:01:22;14.50;99.90
56727;DHT22;42609;52.700;6.236;2023-03-31T13:09:00;13.90;99.90
56727;DHT22;42609;52.700;6.236;2023-03-31T13:14:00;13.70;99.90
56727;DHT22;42609;52.700;6.236;2023-03-31T13:16:27;13.70;99.90
56727;DHT22;42609;52.700;6.236;2023-03-31T13:18:54;13.70;99.90
56727;DHT22;42609;52.700;6.236;2023-03-31T13:21:21;13.80;99.90
56727;DHT22;42609;52.700;6.236;2023-03-31T13:23:47;13.90;99.90
56727;DHT22;42609;52.700;6.236;2023-03-31T13:29:24;14.10;99.90
56727;DHT22;42609;52.700;6.236;2023-03-31T13:34:28;14.10;99.90
56727;DHT22;42609;52.700;6.236;2023-03-31T13:37:09;14.10;99.90
56727;DHT22;42609;52.700;6.236;2023-03-31T13:46:36;14.00;99.90
56727;DHT22;42609;52.700;6.236;2023-03-31T13:49:02;14.00;99.90
56727;DHT22;42609;52.700;6.236;2023-03-31T14:08:39;13.80;99.90
56727;DHT22;42609;52.700;6.236;2023-03-31T14:11:20;13.80;99.90
56727;DHT22;42609;52.700;6.236;2023-03-31T14:14:06;13.90;99.90
56727;DHT22;42609;52.700;6.236;2023-03-31T14:16:43;14.10;99.90
56727;DHT22;42609;52.700;6.236;2023-03-31T14:19:19;14.10;99.90
56727;DHT22;42609;52.700;6.236;2023-03-31T14:30:21;14.20;99.90
56727;DHT22;42609;52.700;6.236;2023-03-31T14:33:10;14.30;99.90
56727;DHT22;42609;52.700;6.236;2023-03-31T14:35:49;14.40;99.90
56727;DHT22;42609;52.700;6.236;2023-03-31T14:38:19;14.40;99.90
56727;DHT22;42609;52.700;6.236;2023-03-31T14:40:48;14.40;99.90
56727;DHT22;42609;52.700;6.236;2023-03-31T14:43:20;14.60;99.90
56727;DHT22;42609;52.700;6.236;2023-03-31T14:45:58;14.60;99.90
56727;DHT22;42609;52.700;6.236;2023-03-31T14:48:26;14.70;99.90
56727;DHT22;42609;52.700;6.236;2023-03-31T14:50:56;14.70;99.90
56727;DHT22;42609;52.700;6.236;2023-03-31T14:53:23;14.70;99.90
56727;DHT22;42609;52.700;6.236;2023-03-31T14:55:50;14.60;99.90
56727;DHT22;42609;52.700;6.236;2023-03-31T14:58:33;14.70;99.90
56727;DHT22;42609;52.700;6.236;2023-03-31T15:01:01;14.60;99.90
56727;DHT22;42609;52.700;6.236;2023-03-31T15:03:28;14.60;99.90
56727;DHT22;42609;52.700;6.236;2023-03-31T15:06:00;14.50;99.90
56727;DHT22;42609;52.700;6.236;2023-03-31T15:08:27;14.30;99.90
56727;DHT22;42609;52.700;6.236;2023-03-31T15:11:01;14.40;99.90
56727;DHT22;42609;52.700;6.236;2023-03-31T15:13:41;14.40;99.90
56727;DHT22;42609;52.700;6.236;2023-03-31T15:16:19;14.30;99.90
56727;DHT22;42609;52.700;6.236;2023-03-31T15:18:45;14.20;99.90
56727;DHT22;42609;52.700;6.236;2023-03-31T15:21:21;14.20;99.90
56727;DHT22;42609;52.700;6.236;2023-03-31T15:23:46;14.20;99.90
56727;DHT22;42609;52.700;6.236;2023-03-31T15:26:15;14.00;99.90
56727;DHT22;42609;52.700;6.236;2023-03-31T15:28:52;14.00;99.90
56727;DHT22;42609;52.700;6.236;2023-03-31T15:31:19;13.80;99.90
56727;DHT22;42609;52.700;6.236;2023-03-31T15:33:46;13.60;99.90
56727;DHT22;42609;52.700;6.236;2023-03-31T15:36:12;13.50;99.90
56727;DHT22;42609;52.700;6.236;2023-03-31T15:38:38;13.50;99.90
56727;DHT22;42609;52.700;6.236;2023-03-31T15:41:14;13.50;99.90
56727;DHT22;42609;52.700;6.236;2023-03-31T15:46:10;13.70;99.90
56727;DHT22;42609;52.700;6.236;2023-03-31T15:48:54;13.80;99.90
56727;DHT22;42609;52.700;6.236;2023-03-31T15:51:37;13.80;99.90
56727;DHT22;42609;52.700;6.236;2023-03-31T15:56:57;13.70;99.90
56727;DHT22;42609;52.700;6.236;2023-03-31T15:59:25;13.80;99.90
56727;DHT22;42609;52.700;6.236;2023-03-31T16:01:53;13.80;99.90
56727;DHT22;42609;52.700;6.236;2023-03-31T16:04:19;13.80;99.90
56727;DHT22;42609;52.700;6.236;2023-03-31T16:06:55;13.90;99.90
56727;DHT22;42609;52.700;6.236;2023-03-31T16:09:36;13.90;99.90
56727;DHT22;42609;52.700;6.236;2023-03-31T16:12:08;13.80;99.90
56727;DHT22;42609;52.700;6.236;2023-03-31T16:14:37;13.70;99.90
56727;DHT22;42609;52.700;6.236;2023-03-31T16:17:25;13.70;99.90
56727;DHT22;42609;52.700;6.236;2023-03-31T16:19:58;13.60;99.90
56727;DHT22;42609;52.700;6.236;2023-03-31T16:22:30;13.50;99.90
56727;DHT22;42609;52.700;6.236;2023-03-31T16:24:55;13.50;99.90
56727;DHT22;42609;52.700;6.236;2023-03-31T16:27:21;13.40;99.90
56727;DHT22;42609;52.700;6.236;2023-03-31T16:29:47;13.40;99.90
56727;DHT22;42609;52.700;6.236;2023-03-31T16:32:17;13.30;99.90
56727;DHT22;42609;52.700;6.236;2023-03-31T16:35:01;13.30;99.90
56727;DHT22;42609;52.700;6.236;2023-03-31T16:37:27;13.30;99.90
56727;DHT22;42609;52.700;6.236;2023-03-31T16:39:53;13.20;99.90
56727;DHT22;42609;52.700;6.236;2023-03-31T16:42:19;13.20;99.90
56727;DHT22;42609;52.700;6.236;2023-03-31T16:44:45;13.20;99.90
56727;DHT22;42609;52.700;6.236;2023-03-31T16:47:11;13.10;99.90
56727;DHT22;42609;52.700;6.236;2023-03-31T16:49:37;13.10;99.90
56727;DHT22;42609;52.700;6.236;2023-03-31T16:52:03;13.10;99.90
56727;DHT22;42609;52.700;6.236;2023-03-31T16:54:30;13.10;99.90
56727;DHT22;42609;52.700;6.236;2023-03-31T16:56:55;13.10;99.90
56727;DHT22;42609;52.700;6.236;2023-03-31T16:59:22;13.10;99.90
56727;DHT22;42609;52.700;6.236;2023-03-31T17:01:48;13.10;99.90
56727;DHT22;42609;52.700;6.236;2023-03-31T17:04:14;13.00;99.90
56727;DHT22;42609;52.700;6.236;2023-03-31T17:06:40;13.00;99.90
56727;DHT22;42609;52.700;6.236;2023-03-31T17:09:05;13.00;99.90
56727;DHT22;42609;52.700;6.236;2023-03-31T17:11:31;13.00;99.90
56727;DHT22;42609;52.700;6.236;2023-03-31T17:13:57;13.00;99.90
56727;DHT22;42609;52.700;6.236;2023-03-31T17:16:24;13.00;99.90
56727;DHT22;42609;52.700;6.236;2023-03-31T17:18:50;12.90;99.90
56727;DHT22;42609;52.700;6.236;2023-03-31T17:21:17;12.90;99.90
56727;DHT22;42609;52.700;6.236;2023-03-31T17:23:44;12.80;99.90
56727;DHT22;42609;52.700;6.236;2023-03-31T17:26:11;12.80;99.90
56727;DHT22;42609;52.700;6.236;2023-03-31T17:28:37;12.80;99.90
56727;DHT22;42609;52.700;6.236;2023-03-31T17:31:17;12.80;99.90
56727;DHT22;42609;52.700;6.236;2023-03-31T17:33:43;12.80;99.90
56727;DHT22;42609;52.700;6.236;2023-03-31T17:36:09;12.70;99.90
56727;DHT22;42609;52.700;6.236;2023-03-31T17:38:36;12.70;99.90
56727;DHT22;42609;52.700;6.236;2023-03-31T17:41:08;12.60;99.90
56727;DHT22;42609;52.700;6.236;2023-03-31T17:43:34;12.60;99.90
56727;DHT22;42609;52.700;6.236;2023-03-31T17:46:07;12.60;99.90
56727;DHT22;42609;52.700;6.236;2023-03-31T17:48:36;12.50;99.90
56727;DHT22;42609;52.700;6.236;2023-03-31T17:51:11;12.50;99.90
56727;DHT22;42609;52.700;6.236;2023-03-31T17:53:39;12.50;99.90
56727;DHT22;42609;52.700;6.236;2023-03-31T17:56:05;12.50;99.90
56727;DHT22;42609;52.700;6.236;2023-03-31T17:58:31;12.40;99.90
56727;DHT22;42609;52.700;6.236;2023-03-31T18:00:57;12.40;99.90
56727;DHT22;42609;52.700;6.236;2023-03-31T18:03:23;12.40;99.90
56727;DHT22;42609;52.700;6.236;2023-03-31T18:05:49;12.40;99.90
56727;DHT22;42609;52.700;6.236;2023-03-31T18:08:17;12.30;99.90
56727;DHT22;42609;52.700;6.236;2023-03-31T18:10:46;12.30;99.90
56727;DHT22;42609;52.700;6.236;2023-03-31T18:13:11;12.30;99.90
56727;DHT22;42609;52.700;6.236;2023-03-31T18:15:37;12.20;99.90
56727;DHT22;42609;52.700;6.236;2023-03-31T18:18:04;12.20;99.90
56727;DHT22;42609;52.700;6.236;2023-03-31T18:20:30;12.10;99.90
56727;DHT22;42609;52.700;6.236;2023-03-31T18:22:56;12.10;99.90
56727;DHT22;42609;52.700;6.236;2023-03-31T18:25:22;12.10;99.90
56727;DHT22;42609;52.700;6.236;2023-03-31T18:27:47;12.00;99.90
56727;DHT22;42609;52.700;6.236;2023-03-31T18:30:13;12.00;99.90
56727;DHT22;42609;52.700;6.236;2023-03-31T18:32:39;11.90;99.90
56727;DHT22;42609;52.700;6.236;2023-03-31T18:35:05;11.90;99.90
56727;DHT22;42609;52.700;6.236;2023-03-31T18:37:31;11.90;99.90
56727;DHT22;42609;52.700;6.236;2023-03-31T18:39:58;11.80;99.90
56727;DHT22;42609;52.700;6.236;2023-03-31T18:42:23;11.80;99.90
56727;DHT22;42609;52.700;6.236;2023-03-31T18:44:52;11.80;99.90
56727;DHT22;42609;52.700;6.236;2023-03-31T18:47:18;11.80;99.90
56727;DHT22;42609;52.700;6.236;2023-03-31T18:49:45;11.80;99.90
56727;DHT22;42609;52.700;6.236;2023-03-31T18:52:12;11.80;99.90
56727;DHT22;42609;52.700;6.236;2023-03-31T18:54:37;11.80;99.90
56727;DHT22;42609;52.700;6.236;2023-03-31T18:57:03;11.80;99.90
56727;DHT22;42609;52.700;6.236;2023-03-31T18:59:28;11.70;99.90
56727;DHT22;42609;52.700;6.236;2023-03-31T19:01:54;11.80;99.90
56727;DHT22;42609;52.700;6.236;2023-03-31T19:04:20;11.70;99.90
56727;DHT22;42609;52.700;6.236;2023-03-31T19:06:45;11.70;99.90
56727;DHT22;42609;52.700;6.236;2023-03-31T19:09:11;11.70;99.90
56727;DHT22;42609;52.700;6.236;2023-03-31T19:11:36;11.70;99.90
56727;DHT22;42609;52.700;6.236;2023-03-31T19:14:02;11.70;99.90
56727;DHT22;42609;52.700;6.236;2023-03-31T19:16:28;11.70;99.90
56727;DHT22;42609;52.700;6.236;2023-03-31T19:18:53;11.60;99.90
56727;DHT22;42609;52.700;6.236;2023-03-31T19:21:20;11.70;99.90
56727;DHT22;42609;52.700;6.236;2023-03-31T19:23:46;11.60;99.90
56727;DHT22;42609;52.700;6.236;2023-03-31T19:26:14;11.60;99.90
56727;DHT22;42609;52.700;6.236;2023-03-31T19:28:41;11.60;99.90
56727;DHT22;42609;52.700;6.236;2023-03-31T19:31:06;11.60;99.90
56727;DHT22;42609;52.700;6.236;2023-03-31T19:33:32;11.60;99.90
56727;DHT22;42609;52.700;6.236;2023-03-31T19:35:58;11.60;99.90
56727;DHT22;42609;52.700;6.236;2023-03-31T19:38:24;11.60;99.90
56727;DHT22;42609;52.700;6.236;2023-03-31T19:40:51;11.60;99.90
56727;DHT22;42609;52.700;6.236;2023-03-31T19:43:22;11.60;99.90
56727;DHT22;42609;52.700;6.236;2023-03-31T19:45:50;11.50;99.90
56727;DHT22;42609;52.700;6.236;2023-03-31T19:48:17;11.50;99.90
56727;DHT22;42609;52.700;6.236;2023-03-31T19:50:49;11.50;99.90
56727;DHT22;42609;52.700;6.236;2023-03-31T19:53:16;11.50;99.90
56727;DHT22;42609;52.700;6.236;2023-03-31T19:55:41;11.50;99.90
56727;DHT22;42609;52.700;6.236;2023-03-31T19:58:07;11.50;99.90
56727;DHT22;42609;52.700;6.236;2023-03-31T20:00:33;11.40;99.90
56727;DHT22;42609;52.700;6.236;2023-03-31T20:02:59;11.40;99.90
56727;DHT22;42609;52.700;6.236;2023-03-31T20:05:26;11.40;99.90
56727;DHT22;42609;52.700;6.236;2023-03-31T20:07:51;11.40;99.90
56727;DHT22;42609;52.700;6.236;2023-03-31T20:10:17;11.30;99.90
56727;DHT22;42609;52.700;6.236;2023-03-31T20:12:43;11.30;99.90
56727;DHT22;42609;52.700;6.236;2023-03-31T20:15:12;11.30;99.90
56727;DHT22;42609;52.700;6.236;2023-03-31T20:17:37;11.30;99.90
56727;DHT22;42609;52.700;6.236;2023-03-31T20:20:03;11.30;99.90
56727;DHT22;42609;52.700;6.236;2023-03-31T20:22:28;11.30;99.90
56727;DHT22;42609;52.700;6.236;2023-03-31T20:24:54;11.30;99.90
56727;DHT22;42609;52.700;6.236;2023-03-31T20:27:20;11.30;99.90
56727;DHT22;42609;52.700;6.236;2023-03-31T20:29:50;11.30;99.90
56727;DHT22;42609;52.700;6.236;2023-03-31T20:32:16;11.30;99.90
56727;DHT22;42609;52.700;6.236;2023-03-31T20:34:42;11.30;99.90
56727;DHT22;42609;52.700;6.236;2023-03-31T20:37:07;11.30;99.90
56727;DHT22;42609;52.700;6.236;2023-03-31T20:39:33;11.30;99.90
56727;DHT22;42609;52.700;6.236;2023-03-31T20:41:58;11.30;99.90
56727;DHT22;42609;52.700;6.236;2023-03-31T20:44:24;11.30;99.90
56727;DHT22;42609;52.700;6.236;2023-03-31T20:46:49;11.30;99.90
56727;DHT22;42609;52.700;6.236;2023-03-31T20:49:16;11.30;99.90
56727;DHT22;42609;52.700;6.236;2023-03-31T20:51:42;11.30;99.90
56727;DHT22;42609;52.700;6.236;2023-03-31T20:54:09;11.20;99.90
56727;DHT22;42609;52.700;6.236;2023-03-31T20:56:39;11.20;99.90
56727;DHT22;42609;52.700;6.236;2023-03-31T20:59:06;11.20;99.90
56727;DHT22;42609;52.700;6.236;2023-03-31T21:01:34;11.20;99.90
56727;DHT22;42609;52.700;6.236;2023-03-31T21:04:01;11.20;99.90
56727;DHT22;42609;52.700;6.236;2023-03-31T21:06:29;11.20;99.90
56727;DHT22;42609;52.700;6.236;2023-03-31T21:08:55;11.20;99.90
56727;DHT22;42609;52.700;6.236;2023-03-31T21:11:22;11.20;99.90
56727;DHT22;42609;52.700;6.236;2023-03-31T21:13:48;11.20;99.90
56727;DHT22;42609;52.700;6.236;2023-03-31T21:16:15;11.20;99.90
56727;DHT22;42609;52.700;6.236;2023-03-31T21:18:41;11.20;99.90
56727;DHT22;42609;52.700;6.236;2023-03-31T21:21:12;11.20;99.90
56727;DHT22;42609;52.700;6.236;2023-03-31T21:23:38;11.20;99.90
56727;DHT22;42609;52.700;6.236;2023-03-31T21:26:05;11.20;99.90
56727;DHT22;42609;52.700;6.236;2023-03-31T21:28:34;11.10;99.90
56727;DHT22;42609;52.700;6.236;2023-03-31T21:31:09;11.10;99.90
56727;DHT22;42609;52.700;6.236;2023-03-31T21:33:37;11.10;99.90
56727;DHT22;42609;52.700;6.236;2023-03-31T21:36:04;11.10;99.90
56727;DHT22;42609;52.700;6.236;2023-03-31T21:38:31;11.10;99.90
56727;DHT22;42609;52.700;6.236;2023-03-31T21:41:04;11.10;99.90
56727;DHT22;42609;52.700;6.236;2023-03-31T21:43:30;11.10;99.90
56727;DHT22;42609;52.700;6.236;2023-03-31T21:45:57;11.10;99.90
56727;DHT22;42609;52.700;6.236;2023-03-31T21:48:22;11.10;99.90
56727;DHT22;42609;52.700;6.236;2023-03-31T21:50:52;11.10;99.90
56727;DHT22;42609;52.700;6.236;2023-03-31T21:53:20;11.10;99.90
56727;DHT22;42609;52.700;6.236;2023-03-31T21:55:46;11.10;99.90
56727;DHT22;42609;52.700;6.236;2023-03-31T21:58:12;11.10;99.90
56727;DHT22;42609;52.700;6.236;2023-03-31T22:00:38;11.10;99.90
56727;DHT22;42609;52.700;6.236;2023-03-31T22:03:03;11.10;99.90
56727;DHT22;42609;52.700;6.236;2023-03-31T22:05:30;11.10;99.90
56727;DHT22;42609;52.700;6.236;2023-03-31T22:07:57;11.10;99.90
56727;DHT22;42609;52.700;6.236;2023-03-31T22:10:23;11.10;99.90
56727;DHT22;42609;52.700;6.236;2023-03-31T22:12:48;11.10;99.90
56727;DHT22;42609;52.700;6.236;2023-03-31T22:15:14;11.10;99.90
56727;DHT22;42609;52.700;6.236;2023-03-31T22:17:39;11.10;99.90
56727;DHT22;42609;52.700;6.236;2023-03-31T22:20:06;11.00;99.90
56727;DHT22;42609;52.700;6.236;2023-03-31T22:22:32;11.00;99.90
56727;DHT22;42609;52.700;6.236;2023-03-31T22:24:58;11.10;99.90
56727;DHT22;42609;52.700;6.236;2023-03-31T22:27:24;11.00;99.90
56727;DHT22;42609;52.700;6.236;2023-03-31T22:29:49;11.10;99.90
56727;DHT22;42609;52.700;6.236;2023-03-31T22:32:15;11.00;99.90
56727;DHT22;42609;52.700;6.236;2023-03-31T22:34:45;11.00;99.90
56727;DHT22;42609;52.700;6.236;2023-03-31T22:37:11;11.00;99.90
56727;DHT22;42609;52.700;6.236;2023-03-31T22:39:37;11.00;99.90
56727;DHT22;42609;52.700;6.236;2023-03-31T22:42:02;11.00;99.90
56727;DHT22;42609;52.700;6.236;2023-03-31T22:44:28;11.00;99.90
56727;DHT22;42609;52.700;6.236;2023-03-31T22:46:54;11.00;99.90
56727;DHT22;42609;52.700;6.236;2023-03-31T22:49:20;11.00;99.90
56727;DHT22;42609;52.700;6.236;2023-03-31T22:51:46;11.00;99.90
56727;DHT22;42609;52.700;6.236;2023-03-31T22:54:14;11.00;99.90
56727;DHT22;42609;52.700;6.236;2023-03-31T22:56:41;11.00;99.90
56727;DHT22;42609;52.700;6.236;2023-03-31T22:59:07;10.90;99.90
56727;DHT22;42609;52.700;6.236;2023-03-31T23:01:33;10.90;99.90
56727;DHT22;42609;52.700;6.236;2023-03-31T23:03:59;10.90;99.90
56727;DHT22;42609;52.700;6.236;2023-03-31T23:06:26;10.90;99.90
56727;DHT22;42609;52.700;6.236;2023-03-31T23:08:52;10.90;99.90
56727;DHT22;42609;52.700;6.236;2023-03-31T23:11:17;10.90;99.90
56727;DHT22;42609;52.700;6.236;2023-03-31T23:13:43;10.90;99.90
56727;DHT22;42609;52.700;6.236;2023-03-31T23:16:16;10.90;99.90
56727;DHT22;42609;52.700;6.236;2023-03-31T23:18:42;10.90;99.90
56727;DHT22;42609;52.700;6.236;2023-03-31T23:21:18;10.90;99.90
56727;DHT22;42609;52.700;6.236;2023-03-31T23:23:44;10.80;99.90
56727;DHT22;42609;52.700;6.236;2023-03-31T23:26:10;10.80;99.90
56727;DHT22;42609;52.700;6.236;2023-03-31T23:28:38;10.80;99.90
56727;DHT22;42609;52.700;6.236;2023-03-31T23:31:04;10.80;99.90
56727;DHT22;42609;52.700;6.236;2023-03-31T23:33:30;10.90;99.90
56727;DHT22;42609;52.700;6.236;2023-03-31T23:36:01;10.90;99.90
56727;DHT22;42609;52.700;6.236;2023-03-31T23:38:28;10.80;99.90
56727;DHT22;42609;52.700;6.236;2023-03-31T23:40:54;10.80;99.90
56727;DHT22;42609;52.700;6.236;2023-03-31T23:43:20;10.80;99.90
56727;DHT22;42609;52.700;6.236;2023-03-31T23:45:45;10.80;99.90
56727;DHT22;42609;52.700;6.236;2023-03-31T23:48:11;10.80;99.90
56727;DHT22;42609;52.700;6.236;2023-03-31T23:50:37;10.80;99.90
56727;DHT22;42609;52.700;6.236;2023-03-31T23:53:03;10.80;99.90
56727;DHT22;42609;52.700;6.236;2023-03-31T23:55:28;10.80;99.90
56727;DHT22;42609;52.700;6.236;2023-03-31T23:57:54;10.80;99.90
